Terminal Aerodrome Forecast
Issued by NWS Medford, OR

Home | Current Version | Previous Version | Text Only | Print | Product List | Glossary On
Versions: 1 2 3 4 5 6 7 8 9 10 11 12
000
FTUS46 KMFR 161700 RRA
TAFMFR
TAF
KMFR 161746Z 1618/1718 00000KT P6SM FEW060 SCT250
     FM162200 33008KT P6SM SCT070 SCT120
     FM170400 VRB03KT P6SM SCT120=

USA.gov is the U.S. government's official web portal to all federal, state and local government web resources and services.